Time;durP1;ratioP1;P1;durP2;ratioP2;P2;SDS_P1;SDS_P2;PMS_P1;PMS_P2;Temp;Humidity;BMP_temperature;BMP_pressure;BME280_temperature;BME280_humidity;BME280_pressure;Samples;Min_cycle;Max_cycle;Signal;HPM_P1;HPM_P2
2022/11/07 00:01:47;;;;;;;23.13;11.63;;;11.30;99.90;;;;;;4794044;30;20090;-70
2022/11/07 00:04:13;;;;;;;22.17;10.50;;;11.30;99.90;;;;;;4793649;29;20418;-70
2022/11/07 00:06:39;;;;;;;16.83;9.85;;;11.40;99.90;;;;;;4793041;30;20370;-70
2022/11/07 00:09:05;;;;;;;19.52;10.23;;;11.50;99.90;;;;;;4793909;29;20065;-69
2022/11/07 00:11:31;;;;;;;19.70;11.82;;;11.50;99.90;;;;;;4778120;30;20104;-69
2022/11/07 00:13:56;;;;;;;21.60;10.73;;;11.60;99.90;;;;;;4793759;30;20079;-69
2022/11/07 00:16:22;;;;;;;14.82;10.35;;;11.60;99.90;;;;;;4793706;30;20080;-70
2022/11/07 00:18:48;;;;;;;21.20;11.85;;;11.70;99.90;;;;;;4778234;30;20104;-69
2022/11/07 00:21:13;;;;;;;16.63;11.07;;;11.80;99.90;;;;;;4793717;29;20050;-69
2022/11/07 00:23:40;;;;;;;15.85;9.80;;;11.70;99.90;;;;;;4793820;30;20047;-69
2022/11/07 00:26:09;;;;;;;21.88;11.05;;;11.70;99.90;;;;;;4792618;30;20085;-69
2022/11/07 00:28:36;;;;;;;22.20;10.55;;;11.70;99.90;;;;;;4792880;30;20051;-69
2022/11/07 00:31:03;;;;;;;18.35;10.85;;;11.60;99.90;;;;;;4792396;30;20084;-69
2022/11/07 00:33:29;;;;;;;21.42;10.25;;;11.70;99.90;;;;;;4793467;29;20055;-70
2022/11/07 00:35:55;;;;;;;16.48;10.43;;;11.60;99.90;;;;;;4793560;29;20043;-69
2022/11/07 00:38:20;;;;;;;17.25;9.77;;;11.80;99.90;;;;;;4792550;30;20047;-70
2022/11/07 00:40:57;;;;;;;18.63;9.30;;;11.70;99.90;;;;;;4792718;30;20047;-69
2022/11/07 00:43:23;;;;;;;;;;;11.80;99.90;;;;;;4793944;30;20043;-69
2022/11/07 00:45:49;;;;;;;20.37;10.77;;;11.90;99.90;;;;;;4793354;30;20367;-69
2022/11/07 00:48:14;;;;;;;16.40;8.73;;;11.80;99.90;;;;;;4793535;29;20070;-69
2022/11/07 00:50:40;;;;;;;19.92;10.13;;;11.80;99.90;;;;;;4792352;30;20126;-69
2022/11/07 00:53:06;;;;;;;16.70;10.05;;;11.90;99.90;;;;;;4793212;30;20043;-69
2022/11/07 00:55:32;;;;;;;17.80;10.40;;;11.80;99.90;;;;;;4793254;30;20130;-69
2022/11/07 00:57:58;;;;;;;20.55;9.75;;;11.90;99.90;;;;;;4793174;29;20096;-69
2022/11/07 01:00:24;;;;;;;18.30;9.73;;;11.80;99.90;;;;;;4791537;29;20104;-69
2022/11/07 01:05:34;;;;;;;28.25;10.55;;;12.00;99.90;;;;;;4792128;30;20047;-69
2022/11/07 01:07:59;;;;;;;21.55;9.85;;;12.10;99.90;;;;;;4792785;29;20062;-69
2022/11/07 01:10:25;;;;;;;22.23;10.40;;;12.10;99.90;;;;;;4792966;29;20315;-69
2022/11/07 01:12:51;;;;;;;19.52;8.80;;;12.10;99.90;;;;;;4792409;29;20075;-69
2022/11/07 01:15:16;;;;;;;19.90;9.80;;;12.10;99.90;;;;;;4792784;29;20441;-69
2022/11/07 01:17:42;;;;;;;18.38;8.50;;;12.20;99.90;;;;;;4793034;30;20333;-69
2022/11/07 01:20:09;;;;;;;17.80;9.18;;;12.20;99.90;;;;;;4793010;29;20055;-69
2022/11/07 01:22:34;;;;;;;22.35;9.40;;;12.20;99.90;;;;;;4793025;29;20134;-69
2022/11/07 01:25:00;;;;;;;14.27;8.88;;;12.20;99.90;;;;;;4792488;29;20130;-70
2022/11/07 01:27:26;;;;;;;16.77;8.90;;;12.10;99.90;;;;;;4777076;30;20043;-69
2022/11/07 01:29:51;;;;;;;17.42;10.45;;;12.10;99.90;;;;;;4792561;29;20101;-69
2022/11/07 01:32:17;;;;;;;19.58;9.60;;;12.10;99.90;;;;;;4792495;30;20043;-69
2022/11/07 01:34:43;;;;;;;21.50;9.32;;;12.10;99.90;;;;;;4792360;30;20079;-69
2022/11/07 01:37:08;;;;;;;19.55;8.18;;;12.10;99.90;;;;;;4791642;30;20054;-69
2022/11/07 01:39:34;;;;;;;19.30;9.30;;;12.10;99.90;;;;;;4792603;30;20050;-69
2022/11/07 01:42:00;;;;;;;19.40;8.82;;;12.00;99.90;;;;;;4791292;30;20050;-69
2022/11/07 01:44:26;;;;;;;15.70;7.85;;;12.00;99.90;;;;;;4792570;29;20130;-69
2022/11/07 01:46:55;;;;;;;17.67;9.68;;;12.00;99.90;;;;;;4791430;30;20188;-69
2022/11/07 01:49:34;;;;;;;19.40;9.18;;;12.10;99.90;;;;;;4792392;29;20070;-70
2022/11/07 01:52:03;;;;;;;14.88;8.65;;;12.10;99.90;;;;;;4792150;30;20060;-69
2022/11/07 01:54:42;;;;;;;16.20;7.88;;;12.10;99.90;;;;;;4792041;30;20058;-69
2022/11/07 01:57:12;;;;;;;19.65;8.77;;;12.00;99.90;;;;;;4792361;29;20396;-70
2022/11/07 01:59:39;;;;;;;22.80;8.38;;;12.00;99.90;;;;;;4792133;30;20043;-69
2022/11/07 02:02:06;;;;;;;21.35;8.23;;;12.10;99.90;;;;;;4792175;29;20451;-69
2022/11/07 02:04:32;;;;;;;16.73;8.30;;;12.10;99.90;;;;;;4791559;30;20108;-69
2022/11/07 02:07:08;;;;;;;19.20;7.88;;;12.10;99.90;;;;;;4791803;30;20055;-69
2022/11/07 02:09:34;;;;;;;20.33;7.80;;;12.20;99.90;;;;;;4791696;30;20095;-69
2022/11/07 02:12:00;;;;;;;13.93;7.28;;;12.20;99.90;;;;;;4791249;29;20078;-70
2022/11/07 02:14:27;;;;;;;19.80;8.43;;;12.10;99.90;;;;;;4792044;29;20112;-69
2022/11/07 02:16:53;;;;;;;16.85;7.18;;;12.10;99.90;;;;;;4790932;30;20054;-70
2022/11/07 02:19:37;;;;;;;22.20;7.55;;;12.10;99.90;;;;;;4791660;29;20047;-69
2022/11/07 02:22:24;;;;;;;17.95;7.60;;;12.10;99.90;;;;;;4791849;29;20065;-69
2022/11/07 02:24:58;;;;;;;13.70;6.28;;;12.10;99.90;;;;;;4790956;30;20050;-69
2022/11/07 02:27:26;;;;;;;16.90;7.30;;;12.10;99.90;;;;;;4790851;30;20391;-69
2022/11/07 02:30:00;;;;;;;16.23;7.93;;;12.20;99.90;;;;;;4791404;30;20444;-70
2022/11/07 02:32:26;;;;;;;21.95;9.23;;;12.20;99.90;;;;;;4791763;29;20104;-69
2022/11/07 02:34:56;;;;;;;20.73;7.45;;;12.20;99.90;;;;;;4791410;30;20306;-69
2022/11/07 02:37:30;;;;;;;14.05;6.80;;;12.20;99.90;;;;;;4790827;29;20047;-69
2022/11/07 02:39:57;;;;;;;14.57;6.93;;;12.10;99.90;;;;;;4790581;29;20047;-69
2022/11/07 02:42:24;;;;;;;14.52;6.65;;;12.10;99.90;;;;;;4791350;29;20164;-69
2022/11/07 02:44:52;;;;;;;14.98;7.40;;;12.20;99.90;;;;;;4791520;29;20047;-69
2022/11/07 02:47:18;;;;;;;12.60;6.95;;;12.10;99.90;;;;;;4791503;30;20166;-69
2022/11/07 02:49:44;;;;;;;22.17;7.63;;;12.10;99.90;;;;;;4791251;30;20128;-69
2022/11/07 02:52:09;;;;;;;19.02;9.48;;;12.10;99.90;;;;;;4791490;30;20036;-70
2022/11/07 02:54:35;;;;;;;23.33;9.70;;;12.20;99.90;;;;;;4791631;29;20045;-69
2022/11/07 02:57:01;;;;;;;29.45;8.80;;;12.20;99.90;;;;;;4790350;30;20051;-70
2022/11/07 02:59:26;;;;;;;23.15;9.10;;;12.10;99.90;;;;;;4790378;30;20051;-69
2022/11/07 03:01:52;;;;;;;21.75;8.07;;;12.10;99.90;;;;;;4791306;30;20047;-69
2022/11/07 03:04:18;;;;;;;21.27;8.25;;;12.00;99.90;;;;;;4790691;30;20058;-69
2022/11/07 03:06:43;;;;;;;19.45;9.05;;;12.00;99.90;;;;;;4790335;30;20138;-68
2022/11/07 03:09:09;;;;;;;19.25;7.10;;;12.00;99.90;;;;;;4791391;29;20337;-69
2022/11/07 03:11:35;;;;;;;13.98;7.18;;;12.00;99.90;;;;;;4791205;29;20456;-69
2022/11/07 03:14:00;;;;;;;21.73;8.02;;;12.10;99.90;;;;;;4790113;30;20047;-70
2022/11/07 03:16:26;;;;;;;20.08;8.15;;;12.10;99.90;;;;;;4791402;29;20043;-69
2022/11/07 03:18:52;;;;;;;19.00;7.00;;;12.00;99.90;;;;;;4791165;30;20369;-69
2022/11/07 03:21:18;;;;;;;13.30;6.18;;;11.90;99.90;;;;;;4790279;30;20366;-69
2022/11/07 03:23:44;;;;;;;21.83;8.27;;;11.90;99.90;;;;;;4793070;29;20055;-69
2022/11/07 03:26:09;;;;;;;25.88;8.57;;;11.90;99.90;;;;;;4793710;30;20047;-69
2022/11/07 03:28:35;;;;;;;18.27;8.30;;;11.90;99.90;;;;;;4794353;29;20051;-69
2022/11/07 03:31:02;;;;;;;22.83;7.60;;;11.90;99.90;;;;;;4793739;30;20114;-70
2022/11/07 03:33:29;;;;;;;16.25;7.32;;;11.90;99.90;;;;;;4794125;29;20039;-69
2022/11/07 03:35:55;;;;;;;11.95;7.32;;;11.90;99.90;;;;;;4794345;29;20078;-69
2022/11/07 03:38:20;;;;;;;25.77;7.25;;;12.00;99.90;;;;;;4794347;29;20071;-69
2022/11/07 03:40:46;;;;;;;17.30;7.43;;;12.00;99.90;;;;;;4793092;30;20051;-69
2022/11/07 03:43:12;;;;;;;16.27;6.60;;;12.00;99.90;;;;;;4794223;30;20079;-69
2022/11/07 03:45:37;;;;;;;16.40;7.25;;;12.10;99.90;;;;;;4794507;29;20043;-69
2022/11/07 03:48:03;;;;;;;16.90;6.32;;;12.10;99.90;;;;;;4794337;30;20074;-69
2022/11/07 03:50:29;;;;;;;19.35;6.40;;;11.90;99.90;;;;;;4794470;29;20479;-69
2022/11/07 03:52:54;;;;;;;16.02;6.28;;;12.00;99.90;;;;;;4793358;30;20073;-69
2022/11/07 03:55:20;;;;;;;15.00;7.15;;;12.00;99.90;;;;;;4794051;29;20046;-69
2022/11/07 03:57:46;;;;;;;14.25;6.43;;;12.00;99.90;;;;;;4794189;29;20105;-69
2022/11/07 04:00:13;;;;;;;20.40;6.55;;;11.90;99.90;;;;;;4794245;29;20120;-69
2022/11/07 04:02:40;;;;;;;16.35;6.43;;;11.90;99.90;;;;;;4794304;30;20043;-70
2022/11/07 04:05:06;;;;;;;15.15;6.45;;;12.00;99.90;;;;;;4793946;30;20126;-69
2022/11/07 04:07:32;;;;;;;21.55;6.97;;;12.00;99.90;;;;;;4794005;29;20051;-69
2022/11/07 04:09:58;;;;;;;20.23;7.57;;;12.10;99.90;;;;;;4792717;30;20438;-70
2022/11/07 04:17:54;;;;;;;21.38;6.95;;;12.00;99.90;;;;;;4793908;29;20051;-69
2022/11/07 04:20:20;;;;;;;18.75;7.38;;;11.90;99.90;;;;;;4793917;29;20065;-69
2022/11/07 04:22:46;;;;;;;13.75;5.93;;;11.90;99.90;;;;;;4792825;30;20429;-69
2022/11/07 04:25:12;;;;;;;18.30;6.68;;;11.80;99.90;;;;;;4794016;29;20083;-69
2022/11/07 04:27:45;;;;;;;14.55;6.55;;;12.00;99.90;;;;;;4793686;29;20047;-70
2022/11/07 04:30:22;;;;;;;19.52;6.80;;;12.00;99.90;;;;;;4793811;30;20082;-70
2022/11/07 04:32:53;;;;;;;22.70;7.45;;;12.00;99.90;;;;;;4793575;29;20315;-70
2022/11/07 04:35:21;;;;;;;20.48;7.22;;;12.10;99.90;;;;;;4792256;29;20126;-70
2022/11/07 04:37:46;;;;;;;26.77;7.60;;;12.10;99.90;;;;;;4793776;30;20039;-69
2022/11/07 04:40:13;;;;;;;22.40;6.78;;;12.10;99.90;;;;;;4792742;30;20322;-70
2022/11/07 04:42:38;;;;;;;24.02;6.30;;;12.10;99.90;;;;;;4777667;30;20425;-70
2022/11/07 04:45:05;;;;;;;20.20;7.40;;;11.90;99.90;;;;;;4793460;29;20047;-70
2022/11/07 04:47:30;;;;;;;19.33;7.43;;;12.00;99.90;;;;;;4793502;30;20054;-69
2022/11/07 04:49:56;;;;;;;14.40;6.10;;;12.00;99.90;;;;;;4793339;29;20333;-69
2022/11/07 04:52:22;;;;;;;19.65;7.10;;;11.80;99.90;;;;;;4793520;29;20101;-69
2022/11/07 04:54:48;;;;;;;14.35;6.15;;;11.80;99.90;;;;;;4792316;30;20050;-69
2022/11/07 04:57:14;;;;;;;19.80;7.25;;;11.80;99.90;;;;;;4793267;29;20047;-70
2022/11/07 04:59:40;;;;;;;14.93;7.45;;;11.90;99.90;;;;;;4793081;29;20047;-69
2022/11/07 05:02:08;;;;;;;15.20;7.10;;;11.90;99.90;;;;;;4793074;30;20433;-70
2022/11/07 05:04:34;;;;;;;19.90;7.28;;;12.00;99.90;;;;;;4792758;29;20058;-70
2022/11/07 05:07:00;;;;;;;17.95;7.40;;;12.00;99.90;;;;;;4792783;29;20126;-70
2022/11/07 05:09:26;;;;;;;24.10;7.70;;;12.00;99.90;;;;;;4793501;29;20094;-69
2022/11/07 05:11:52;;;;;;;21.15;7.43;;;12.00;99.90;;;;;;4791947;30;20040;-69
2022/11/07 05:14:18;;;;;;;24.52;8.70;;;12.00;99.90;;;;;;4792947;29;20046;-70
2022/11/07 05:16:44;;;;;;;20.23;7.30;;;12.20;99.90;;;;;;4792710;29;20454;-69
2022/11/07 05:19:17;;;;;;;15.73;6.97;;;12.10;99.90;;;;;;4792955;30;20186;-70
2022/11/07 05:21:44;;;;;;;21.13;7.88;;;12.10;99.90;;;;;;4793021;29;20049;-70
2022/11/07 05:24:10;;;;;;;22.67;8.35;;;12.20;99.90;;;;;;4793128;29;20051;-69
2022/11/07 05:26:36;;;;;;;18.85;8.60;;;12.20;99.90;;;;;;4792890;30;20338;-69
2022/11/07 05:29:02;;;;;;;27.52;9.38;;;12.30;99.90;;;;;;4792482;29;20043;-69
2022/11/07 05:31:28;;;;;;;18.02;7.60;;;12.20;99.90;;;;;;4792574;30;20053;-70
2022/11/07 05:33:53;;;;;;;28.75;9.27;;;12.20;99.90;;;;;;4792374;29;20047;-70
2022/11/07 05:36:22;;;;;;;23.67;8.52;;;12.20;99.90;;;;;;4791342;30;20058;-70
2022/11/07 05:38:51;;;;;;;25.52;7.97;;;12.20;99.90;;;;;;4792700;30;20346;-70
2022/11/07 05:41:18;;;;;;;17.27;7.00;;;12.10;99.90;;;;;;4792433;30;20135;-70
2022/11/07 05:43:45;;;;;;;22.42;7.80;;;12.20;99.90;;;;;;4792504;29;20048;-70
2022/11/07 05:46:11;;;;;;;21.20;8.98;;;12.10;99.90;;;;;;4792214;29;20051;-70
2022/11/07 05:48:37;;;;;;;17.33;8.30;;;12.20;99.90;;;;;;4792181;29;20050;-70
2022/11/07 05:51:05;;;;;;;15.60;7.60;;;12.10;99.90;;;;;;4792175;30;20048;-70
2022/11/07 05:53:31;;;;;;;21.70;7.88;;;12.10;99.90;;;;;;4791199;30;20131;-69
2022/11/07 05:55:58;;;;;;;26.95;9.52;;;12.10;99.90;;;;;;4792217;29;20134;-69
2022/11/07 05:58:24;;;;;;;23.52;8.95;;;12.10;99.90;;;;;;4792007;30;20130;-70
2022/11/07 06:00:50;;;;;;;17.40;8.75;;;12.20;99.90;;;;;;4792072;29;20427;-69
2022/11/07 06:03:18;;;;;;;22.10;8.88;;;12.20;99.90;;;;;;4791683;29;20126;-69
2022/11/07 06:05:44;;;;;;;22.10;9.73;;;12.30;99.90;;;;;;4791973;29;20058;-69
2022/11/07 06:08:12;;;;;;;29.27;11.15;;;12.20;99.90;;;;;;4791610;29;20059;-69
2022/11/07 06:10:39;;;;;;;29.70;10.27;;;12.20;99.90;;;;;;4790925;30;20059;-69
2022/11/07 06:13:09;;;;;;;31.00;11.07;;;12.10;99.90;;;;;;4792028;29;20035;-70
2022/11/07 06:15:36;;;;;;;22.50;9.52;;;12.10;99.90;;;;;;4792025;29;20326;-70
2022/11/07 06:18:04;;;;;;;28.67;9.82;;;12.10;99.90;;;;;;4790815;30;20054;-70
2022/11/07 06:20:29;;;;;;;28.83;11.60;;;12.00;99.90;;;;;;4791014;30;20047;-69
2022/11/07 06:22:59;;;;;;;33.33;12.68;;;12.10;99.90;;;;;;4792004;30;20047;-69
2022/11/07 06:25:25;;;;;;;30.42;12.73;;;12.10;99.90;;;;;;4791779;30;20043;-70
2022/11/07 06:27:51;;;;;;;27.67;12.13;;;12.10;99.90;;;;;;4792012;30;20039;-69
2022/11/07 06:30:17;;;;;;;35.45;12.30;;;12.20;99.90;;;;;;4790745;30;20433;-69
2022/11/07 06:32:44;;;;;;;25.50;10.68;;;12.20;99.90;;;;;;4791656;29;20070;-69
2022/11/07 06:35:11;;;;;;;33.88;12.45;;;12.10;99.90;;;;;;4791623;29;20078;-70
2022/11/07 06:37:37;;;;;;;33.50;12.52;;;12.30;99.90;;;;;;4791699;29;20047;-70
2022/11/07 06:40:03;;;;;;;18.92;9.57;;;12.30;99.90;;;;;;4791388;30;20122;-70
2022/11/07 06:42:29;;;;;;;23.52;10.23;;;12.20;99.90;;;;;;4791670;29;20043;-70
2022/11/07 06:44:55;;;;;;;31.77;12.93;;;12.30;99.90;;;;;;4791710;29;20066;-69
2022/11/07 06:47:20;;;;;;;21.20;9.90;;;12.30;99.90;;;;;;4790600;30;20054;-69
2022/11/07 06:49:46;;;;;;;25.67;10.73;;;12.30;99.90;;;;;;4791517;29;20035;-69
2022/11/07 06:52:12;;;;;;;25.65;10.07;;;12.40;99.90;;;;;;4791362;29;20338;-69
2022/11/07 06:54:38;;;;;;;30.08;10.93;;;12.30;99.90;;;;;;4791400;30;20485;-70
2022/11/07 06:57:03;;;;;;;26.13;10.45;;;12.30;99.90;;;;;;4791126;29;20046;-69
2022/11/07 06:59:29;;;;;;;18.73;8.55;;;12.30;99.90;;;;;;4791227;29;20077;-69
2022/11/07 07:01:55;;;;;;;30.40;10.48;;;12.30;99.90;;;;;;4791483;30;20434;-69
2022/11/07 07:04:20;;;;;;;24.00;9.05;;;12.40;99.90;;;;;;4789885;30;20441;-69
2022/11/07 07:06:46;;;;;;;20.63;7.72;;;12.40;99.90;;;;;;4791468;29;20110;-69
2022/11/07 07:09:12;;;;;;;19.80;7.43;;;12.40;99.90;;;;;;4790799;29;20059;-70
2022/11/07 07:11:37;;;;;;;20.42;9.43;;;12.40;99.90;;;;;;4791297;30;20043;-70
2022/11/07 07:14:04;;;;;;;20.88;7.80;;;12.40;99.90;;;;;;4790113;30;20087;-69
2022/11/07 07:16:31;;;;;;;20.58;7.43;;;12.40;99.90;;;;;;4791280;29;20047;-70
2022/11/07 07:18:57;;;;;;;22.45;8.10;;;12.40;99.90;;;;;;4791376;29;20118;-70
2022/11/07 07:21:22;;;;;;;25.48;8.77;;;12.40;99.90;;;;;;4790323;30;20130;-69
2022/11/07 07:23:48;;;;;;;19.45;9.20;;;12.30;99.90;;;;;;4790262;30;20048;-70
2022/11/07 07:26:15;;;;;;;24.80;9.60;;;12.30;99.90;;;;;;4790989;29;20051;-69
2022/11/07 07:28:41;;;;;;;37.33;13.00;;;12.40;99.90;;;;;;4790857;29;20454;-69
2022/11/07 07:31:08;;;;;;;23.20;11.32;;;12.40;99.90;;;;;;4790851;29;20088;-69
2022/11/07 07:33:34;;;;;;;31.95;12.95;;;12.50;99.90;;;;;;4790779;29;20126;-69
2022/11/07 07:36:00;;;;;;;23.00;9.98;;;12.60;99.90;;;;;;4790987;30;20123;-69
2022/11/07 07:38:25;;;;;;;30.08;12.18;;;12.50;99.90;;;;;;4790746;29;20051;-71
2022/11/07 07:40:51;;;;;;;28.25;11.00;;;12.50;99.90;;;;;;4791118;30;20051;-71
2022/11/07 07:43:16;;;;;;;25.60;10.98;;;12.50;99.90;;;;;;4790926;30;20047;-69
2022/11/07 07:45:42;;;;;;;30.92;11.43;;;12.50;99.90;;;;;;4791194;29;20046;-69
2022/11/07 07:48:08;;;;;;;25.17;10.63;;;12.60;99.90;;;;;;4789662;30;20051;-69
2022/11/07 07:50:33;;;;;;;26.40;10.63;;;12.50;99.90;;;;;;4790147;30;20055;-70
2022/11/07 07:52:59;;;;;;;43.22;14.10;;;12.50;99.90;;;;;;4790968;29;20478;-70
2022/11/07 07:55:25;;;;;;;38.30;13.13;;;12.40;99.90;;;;;;4790044;30;20330;-69
2022/11/07 07:57:51;;;;;;;38.60;13.45;;;12.40;99.90;;;;;;4790949;29;20311;-69
2022/11/07 08:00:16;;;;;;;35.08;13.27;;;12.50;99.90;;;;;;4789765;30;20047;-69
2022/11/07 08:02:42;;;;;;;26.48;11.55;;;12.40;99.90;;;;;;4790815;30;20047;-68
2022/11/07 08:05:10;;;;;;;30.95;11.38;;;12.40;99.90;;;;;;4790513;29;20139;-68
2022/11/07 08:07:35;;;;;;;34.13;12.88;;;12.40;99.90;;;;;;4789110;30;20067;-68
2022/11/07 08:10:01;;;;;;;41.38;12.88;;;12.20;99.90;;;;;;4791559;29;20057;-68
2022/11/07 08:12:27;;;;;;;30.75;12.43;;;12.40;99.90;;;;;;4792670;29;20043;-68
2022/11/07 08:14:53;;;;;;;26.70;11.73;;;12.50;99.90;;;;;;4794011;29;20134;-67
2022/11/07 08:17:18;;;;;;;29.35;11.80;;;12.40;99.90;;;;;;4777984;30;20099;-67
2022/11/07 08:19:44;;;;;;;25.27;11.80;;;12.40;99.90;;;;;;4792888;30;20054;-67
2022/11/07 08:22:10;;;;;;;29.00;11.63;;;12.50;99.90;;;;;;4792844;30;20104;-68
2022/11/07 08:24:35;;;;;;;29.17;12.07;;;12.60;99.90;;;;;;4793799;29;20043;-68
2022/11/07 08:27:01;;;;;;;32.92;11.70;;;12.50;99.90;;;;;;4792656;30;20450;-67
2022/11/07 08:29:33;;;;;;;28.42;11.60;;;12.70;99.90;;;;;;4793650;29;20058;-67
2022/11/07 08:31:59;;;;;;;31.00;11.48;;;12.70;99.90;;;;;;4777829;30;20370;-67
2022/11/07 08:34:24;;;;;;;37.20;13.52;;;12.70;99.90;;;;;;4793096;29;20043;-68
2022/11/07 08:36:50;;;;;;;42.25;13.15;;;12.70;99.90;;;;;;4792546;30;20047;-70
2022/11/07 08:39:16;;;;;;;34.88;13.43;;;12.80;99.90;;;;;;4793694;29;20366;-68
2022/11/07 08:41:41;;;;;;;27.10;10.43;;;12.80;99.90;;;;;;4793460;29;20074;-68
2022/11/07 08:44:08;;;;;;;22.73;10.00;;;12.80;99.90;;;;;;4793485;29;20058;-68
2022/11/07 08:46:34;;;;;;;26.38;10.40;;;12.70;99.90;;;;;;4792606;30;20126;-68
2022/11/07 08:48:59;;;;;;;27.85;11.05;;;12.70;99.90;;;;;;4792262;30;20135;-68
2022/11/07 08:51:25;;;;;;;24.52;10.38;;;12.70;99.90;;;;;;4793246;29;20044;-69
2022/11/07 08:53:51;;;;;;;36.67;12.35;;;12.80;99.90;;;;;;4793228;29;20039;-68
2022/11/07 08:56:16;;;;;;;28.02;10.18;;;12.80;99.90;;;;;;4793281;29;20457;-69
2022/11/07 08:58:43;;;;;;;36.05;12.90;;;12.70;99.90;;;;;;4793299;29;20108;-68
2022/11/07 09:01:09;;;;;;;42.97;11.93;;;12.70;99.90;;;;;;4793209;29;20121;-68
2022/11/07 09:03:36;;;;;;;30.50;10.30;;;12.80;99.90;;;;;;4791948;30;20513;-68
2022/11/07 09:06:03;;;;;;;26.88;11.52;;;12.70;99.90;;;;;;4792902;29;20079;-68
2022/11/07 09:08:30;;;;;;;36.25;11.57;;;12.80;99.90;;;;;;4791918;29;20120;-68
2022/11/07 09:11:01;;;;;;;26.77;11.43;;;12.80;99.90;;;;;;4793049;29;20085;-68
2022/11/07 09:13:27;;;;;;;38.63;12.20;;;12.80;99.90;;;;;;4788229;29;20074;-68
2022/11/07 09:15:56;;;;;;;28.00;11.27;;;12.80;99.90;;;;;;4780216;30;20461;-67
2022/11/07 09:18:22;;;;;;;32.08;11.23;;;12.90;99.90;;;;;;4780874;30;20035;-68
2022/11/07 09:20:48;;;;;;;38.72;11.00;;;12.80;99.90;;;;;;4791876;29;20452;-68
2022/11/07 09:23:13;;;;;;;32.20;11.25;;;12.80;99.90;;;;;;4791623;29;20325;-68
2022/11/07 09:25:39;;;;;;;28.02;11.38;;;12.90;99.90;;;;;;4774871;30;20047;-68
2022/11/07 09:28:05;;;;;;;24.58;9.43;;;13.00;99.90;;;;;;4773513;30;20052;-68
2022/11/07 09:30:31;;;;;;;35.38;11.30;;;13.00;99.90;;;;;;4774549;30;20153;-68
2022/11/07 09:32:57;;;;;;;34.85;11.70;;;13.10;99.90;;;;;;4774490;30;20058;-68
2022/11/07 09:35:22;;;;;;;32.20;11.25;;;13.10;99.90;;;;;;4774188;30;20043;-68
2022/11/07 09:37:50;;;;;;;23.52;10.07;;;13.10;99.90;;;;;;4791148;30;20035;-69
2022/11/07 09:40:18;;;;;;;32.38;10.35;;;13.00;99.90;;;;;;4792261;29;20425;-67
2022/11/07 09:42:50;;;;;;;29.23;10.15;;;13.10;99.90;;;;;;4792274;29;20453;-68
2022/11/07 09:45:16;;;;;;;33.72;9.77;;;13.20;99.90;;;;;;4783292;29;20448;-68
2022/11/07 09:47:55;;;;;;;22.88;9.02;;;13.20;99.90;;;;;;4774221;30;20110;-68
2022/11/07 09:50:26;;;;;;;26.50;8.30;;;13.20;99.90;;;;;;4776338;30;20051;-69
2022/11/07 09:52:57;;;;;;;25.67;9.68;;;13.10;99.90;;;;;;4792159;30;20050;-68
2022/11/07 09:55:54;;;;;;;33.58;10.25;;;13.10;99.90;;;;;;4791104;29;20100;-68
2022/11/07 09:58:40;;;;;;;28.27;9.90;;;13.30;99.90;;;;;;4791889;29;20047;-68
2022/11/07 10:01:11;;;;;;;29.63;9.37;;;13.40;99.90;;;;;;4791657;30;20094;-69
2022/11/07 10:03:38;;;;;;;23.65;8.13;;;13.20;99.90;;;;;;4781018;29;20446;-68
2022/11/07 10:06:23;;;;;;;22.58;9.52;;;13.20;99.90;;;;;;4781796;30;20061;-69
2022/11/07 10:09:23;;;;;;;33.45;10.48;;;13.40;99.90;;;;;;4778061;30;20334;-69
2022/11/07 10:12:17;;;;;;;27.65;9.68;;;13.30;99.90;;;;;;4788053;30;20321;-69
2022/11/07 10:14:48;;;;;;;34.33;8.95;;;13.30;99.90;;;;;;4790923;30;20438;-69
2022/11/07 10:18:05;;;;;;;25.65;8.73;;;13.40;99.90;;;;;;4786148;29;20046;-68
2022/11/07 10:21:05;;;;;;;16.33;7.05;;;13.60;99.90;;;;;;4755721;30;20426;-68
2022/11/07 10:24:07;;;;;;;24.70;7.15;;;13.40;99.90;;;;;;4773632;30;20039;-72
2022/11/07 10:26:34;;;;;;;31.85;9.07;;;13.40;99.90;;;;;;4782335;30;20391;-69
2022/11/07 10:29:12;;;;;;;29.55;8.05;;;13.40;99.90;;;;;;4791521;29;20051;-69
2022/11/07 10:31:43;;;;;;;22.80;8.25;;;13.60;99.90;;;;;;4778619;29;20119;-69
2022/11/07 10:34:26;;;;;;;26.25;7.88;;;13.60;99.90;;;;;;4790414;29;20047;-69
2022/11/07 10:36:52;;;;;;;22.13;7.75;;;13.50;99.90;;;;;;4791379;30;20047;-68
2022/11/07 10:39:19;;;;;;;23.63;6.70;;;13.60;99.90;;;;;;4789814;30;20184;-69
2022/11/07 10:42:00;;;;;;;32.95;7.93;;;13.60;99.90;;;;;;4790111;30;20101;-68
2022/11/07 10:44:28;;;;;;;24.80;7.32;;;13.70;99.90;;;;;;4791368;29;20055;-69
2022/11/07 10:46:54;;;;;;;19.88;7.28;;;13.70;99.90;;;;;;4790316;30;20047;-69
2022/11/07 10:49:23;;;;;;;27.00;7.57;;;13.70;99.90;;;;;;4790335;29;20051;-70
2022/11/07 10:51:50;;;;;;;23.65;6.75;;;13.70;99.90;;;;;;4790897;29;20344;-69
2022/11/07 10:54:26;;;;;;;23.48;6.60;;;13.80;99.90;;;;;;4791161;29;20053;-69
2022/11/07 10:57:18;;;;;;;26.33;8.43;;;13.80;99.90;;;;;;4791571;30;20329;-69
2022/11/07 11:00:19;;;;;;;27.35;6.97;;;13.90;99.90;;;;;;4791239;29;20062;-70
2022/11/07 11:02:47;;;;;;;20.02;7.05;;;13.80;99.90;;;;;;4791302;29;20047;-69
2022/11/07 11:05:43;;;;;;;17.63;7.07;;;13.90;99.90;;;;;;4790420;29;20397;-69
2022/11/07 11:08:16;;;;;;;15.68;6.53;;;13.90;99.90;;;;;;4782294;30;20126;-69
2022/11/07 11:10:42;;;;;;;28.77;7.72;;;13.90;99.90;;;;;;4791201;29;20043;-68
2022/11/07 11:13:28;;;;;;;18.00;5.95;;;13.90;99.90;;;;;;4791194;29;20043;-68
2022/11/07 11:15:57;;;;;;;18.98;6.63;;;13.90;99.90;;;;;;4790269;30;20089;-69
2022/11/07 11:18:24;;;;;;;18.70;6.55;;;14.10;99.90;;;;;;4790410;30;20047;-69
2022/11/07 11:21:00;;;;;;;20.50;6.57;;;14.10;99.90;;;;;;4791051;29;20043;-68
2022/11/07 11:23:31;;;;;;;23.40;6.32;;;14.00;99.90;;;;;;4791209;29;20456;-69
2022/11/07 11:26:04;;;;;;;22.17;6.22;;;14.10;99.90;;;;;;4791237;29;20047;-71
2022/11/07 11:28:44;;;;;;;25.17;6.38;;;14.20;99.90;;;;;;4791097;29;20041;-68
2022/11/07 11:31:33;;;;;;;26.33;5.88;;;14.20;99.90;;;;;;4790407;30;20059;-68
2022/11/07 11:34:27;;;;;;;19.30;5.55;;;14.20;99.90;;;;;;4787953;30;20446;-70
2022/11/07 11:37:17;;;;;;;21.40;5.55;;;14.20;99.90;;;;;;4785703;30;20048;-68
2022/11/07 11:39:50;;;;;;;17.98;5.50;;;14.10;99.90;;;;;;4773003;30;20055;-68
2022/11/07 11:42:53;;;;;;;18.52;6.13;;;14.10;99.90;;;;;;4787250;30;20051;-68
2022/11/07 11:45:57;;;;;;;24.42;6.80;;;14.20;99.90;;;;;;4792516;29;20434;-69
2022/11/07 11:48:38;;;;;;;18.00;6.18;;;14.30;99.90;;;;;;4794076;29;20109;-67
2022/11/07 11:51:11;;;;;;;23.02;6.97;;;14.30;99.90;;;;;;4793240;29;20086;-67
2022/11/07 11:53:37;;;;;;;18.67;5.97;;;14.20;99.90;;;;;;4785473;29;20039;-67
2022/11/07 11:56:06;;;;;;;15.68;5.72;;;14.20;99.90;;;;;;4776045;30;20054;-67
2022/11/07 11:58:43;;;;;;;21.08;5.70;;;14.20;99.90;;;;;;4776293;30;20062;-67
2022/11/07 12:01:19;;;;;;;23.10;6.18;;;14.30;99.90;;;;;;4776376;30;20083;-67
2022/11/07 12:04:07;;;;;;;18.55;6.30;;;14.40;99.90;;;;;;4776162;30;20405;-68
2022/11/07 12:06:39;;;;;;;21.65;5.80;;;14.60;99.90;;;;;;4793227;30;20571;-67
2022/11/07 12:09:31;;;;;;;18.73;5.25;;;14.60;99.90;;;;;;4793551;29;20055;-68
2022/11/07 12:12:27;;;;;;;18.15;5.40;;;14.80;99.90;;;;;;4793968;29;20043;-67
2022/11/07 12:15:00;;;;;;;20.05;5.30;;;15.20;99.90;;;;;;4793878;29;20124;-67
2022/11/07 12:17:40;;;;;;;20.55;4.95;;;15.20;99.90;;;;;;4793669;29;20506;-67
2022/11/07 12:20:29;;;;;;;24.35;5.43;;;15.30;99.90;;;;;;4793531;29;20051;-67
2022/11/07 12:23:29;;;;;;;19.17;5.03;;;15.20;99.90;;;;;;4793497;29;20172;-67
2022/11/07 12:26:27;;;;;;;15.95;5.25;;;15.00;99.90;;;;;;4790190;30;20051;-68
2022/11/07 12:29:01;;;;;;;23.55;5.93;;;15.00;99.90;;;;;;4775600;30;20209;-67
2022/11/07 12:32:00;;;;;;;10.32;4.45;;;14.90;99.90;;;;;;4775750;30;20043;-69
2022/11/07 12:34:47;;;;;;;20.88;5.03;;;14.90;99.90;;;;;;4760842;30;20316;-72
2022/11/07 12:37:46;;;;;;;18.95;5.18;;;14.90;99.90;;;;;;4793608;30;20378;-68
2022/11/07 12:40:28;;;;;;;10.85;3.92;;;14.90;99.90;;;;;;4775687;30;20114;-68
2022/11/07 12:43:04;;;;;;;11.95;4.13;;;14.90;99.90;;;;;;4789010;30;20063;-69
2022/11/07 12:45:45;;;;;;;14.25;4.25;;;15.10;99.90;;;;;;4775218;30;20434;-68
2022/11/07 12:48:37;;;;;;;14.38;3.72;;;15.10;99.90;;;;;;4789046;30;20043;-68
2022/11/07 12:51:44;;;;;;;11.82;3.90;;;15.20;99.90;;;;;;4775140;30;20085;-68
2022/11/07 12:54:19;;;;;;;13.85;3.60;;;15.40;99.90;;;;;;4774736;30;20052;-68
2022/11/07 12:56:47;;;;;;;14.85;3.70;;;15.30;99.90;;;;;;4789995;29;20058;-68